sensor_id;sensor_type;location;lat;lon;timestamp;temperature;humidity
46331;DHT22;32049;52.346;4.870;2022-12-07T00:23:32;6.50;99.90
46331;DHT22;32049;52.346;4.870;2022-12-07T00:26:22;6.50;99.90
46331;DHT22;32049;52.346;4.870;2022-12-07T00:29:15;6.30;99.90
46331;DHT22;32049;52.346;4.870;2022-12-07T00:32:03;6.20;99.90
46331;DHT22;32049;52.346;4.870;2022-12-07T00:34:50;6.30;99.90
46331;DHT22;32049;52.346;4.870;2022-12-07T00:37:37;6.30;99.90
46331;DHT22;32049;52.346;4.870;2022-12-07T00:40:24;6.20;99.90
46331;DHT22;32049;52.346;4.870;2022-12-07T00:49:20;6.20;99.90
46331;DHT22;32049;52.346;4.870;2022-12-07T01:13:24;6.30;99.90
46331;DHT22;32049;52.346;4.870;2022-12-07T01:16:13;6.20;99.90
46331;DHT22;32049;52.346;4.870;2022-12-07T01:19:01;6.30;99.90
46331;DHT22;32049;52.346;4.870;2022-12-07T01:21:49;6.40;99.90
46331;DHT22;32049;52.346;4.870;2022-12-07T01:24:37;6.30;99.90
46331;DHT22;32049;52.346;4.870;2022-12-07T01:27:24;6.20;99.90
46331;DHT22;32049;52.346;4.870;2022-12-07T01:30:12;6.30;99.90
46331;DHT22;32049;52.346;4.870;2022-12-07T01:32:59;6.40;99.90
46331;DHT22;32049;52.346;4.870;2022-12-07T01:35:47;6.30;99.90
46331;DHT22;32049;52.346;4.870;2022-12-07T01:38:35;6.40;99.90
46331;DHT22;32049;52.346;4.870;2022-12-07T02:05:46;6.20;99.90
46331;DHT22;32049;52.346;4.870;2022-12-07T02:08:34;6.00;99.90
46331;DHT22;32049;52.346;4.870;2022-12-07T02:11:22;6.00;99.90
46331;DHT22;32049;52.346;4.870;2022-12-07T02:14:10;6.00;99.90
46331;DHT22;32049;52.346;4.870;2022-12-07T02:20:09;6.10;99.90
46331;DHT22;32049;52.346;4.870;2022-12-07T02:26:22;6.10;99.90
46331;DHT22;32049;52.346;4.870;2022-12-07T02:29:28;6.00;99.90
46331;DHT22;32049;52.346;4.870;2022-12-07T02:32:27;6.00;99.90
46331;DHT22;32049;52.346;4.870;2022-12-07T02:35:30;6.10;99.90
46331;DHT22;32049;52.346;4.870;2022-12-07T02:41:11;6.10;99.90
46331;DHT22;32049;52.346;4.870;2022-12-07T02:44:01;6.10;99.90
46331;DHT22;32049;52.346;4.870;2022-12-07T02:46:51;6.10;99.90
46331;DHT22;32049;52.346;4.870;2022-12-07T02:49:40;6.00;99.90
46331;DHT22;32049;52.346;4.870;2022-12-07T03:17:29;5.80;99.90
46331;DHT22;32049;52.346;4.870;2022-12-07T03:20:20;5.80;99.90
46331;DHT22;32049;52.346;4.870;2022-12-07T03:23:08;5.70;99.90
46331;DHT22;32049;52.346;4.870;2022-12-07T03:25:57;5.80;99.90
46331;DHT22;32049;52.346;4.870;2022-12-07T03:28:49;6.00;99.90
46331;DHT22;32049;52.346;4.870;2022-12-07T03:31:41;5.90;99.90
46331;DHT22;32049;52.346;4.870;2022-12-07T03:34:39;6.00;99.90
46331;DHT22;32049;52.346;4.870;2022-12-07T03:43:09;5.90;99.90
46331;DHT22;32049;52.346;4.870;2022-12-07T03:48:55;5.80;99.90
46331;DHT22;32049;52.346;4.870;2022-12-07T03:51:52;5.70;99.90
46331;DHT22;32049;52.346;4.870;2022-12-07T03:54:43;5.70;99.90
46331;DHT22;32049;52.346;4.870;2022-12-07T04:40:06;6.00;99.90
46331;DHT22;32049;52.346;4.870;2022-12-07T04:43:09;5.90;99.90
46331;DHT22;32049;52.346;4.870;2022-12-07T04:46:10;5.90;99.90
46331;DHT22;32049;52.346;4.870;2022-12-07T04:49:41;5.80;99.90
46331;DHT22;32049;52.346;4.870;2022-12-07T04:53:32;5.80;99.90
46331;DHT22;32049;52.346;4.870;2022-12-07T04:56:50;5.90;99.90
46331;DHT22;32049;52.346;4.870;2022-12-07T05:03:29;6.00;99.90
46331;DHT22;32049;52.346;4.870;2022-12-07T05:06:18;6.10;99.90
46331;DHT22;32049;52.346;4.870;2022-12-07T05:09:08;6.10;99.90
46331;DHT22;32049;52.346;4.870;2022-12-07T05:12:00;6.20;99.90
46331;DHT22;32049;52.346;4.870;2022-12-07T05:15:06;6.10;99.90
46331;DHT22;32049;52.346;4.870;2022-12-07T05:18:20;6.10;99.90
46331;DHT22;32049;52.346;4.870;2022-12-07T05:21:07;6.10;99.90
46331;DHT22;32049;52.346;4.870;2022-12-07T05:23:56;6.10;99.90
46331;DHT22;32049;52.346;4.870;2022-12-07T05:26:47;6.00;99.90
46331;DHT22;32049;52.346;4.870;2022-12-07T05:29:37;6.00;99.90
46331;DHT22;32049;52.346;4.870;2022-12-07T05:32:46;5.90;99.90
46331;DHT22;32049;52.346;4.870;2022-12-07T05:35:39;6.00;99.90
46331;DHT22;32049;52.346;4.870;2022-12-07T05:38:27;6.10;99.90
46331;DHT22;32049;52.346;4.870;2022-12-07T05:41:18;6.00;99.90
46331;DHT22;32049;52.346;4.870;2022-12-07T05:44:43;6.10;99.90
46331;DHT22;32049;52.346;4.870;2022-12-07T05:47:45;6.00;99.90
46331;DHT22;32049;52.346;4.870;2022-12-07T05:51:09;6.00;99.90
46331;DHT22;32049;52.346;4.870;2022-12-07T05:53:59;6.00;99.90
46331;DHT22;32049;52.346;4.870;2022-12-07T05:56:47;6.00;99.90
46331;DHT22;32049;52.346;4.870;2022-12-07T05:59:34;5.90;99.90
46331;DHT22;32049;52.346;4.870;2022-12-07T06:02:23;6.00;99.90
46331;DHT22;32049;52.346;4.870;2022-12-07T06:05:11;6.00;99.90
46331;DHT22;32049;52.346;4.870;2022-12-07T06:08:02;5.90;99.90
46331;DHT22;32049;52.346;4.870;2022-12-07T06:11:07;6.00;99.90
46331;DHT22;32049;52.346;4.870;2022-12-07T06:14:49;6.00;99.90
46331;DHT22;32049;52.346;4.870;2022-12-07T06:17:39;6.00;99.90
46331;DHT22;32049;52.346;4.870;2022-12-07T06:20:57;6.10;99.90
46331;DHT22;32049;52.346;4.870;2022-12-07T06:23:46;6.00;99.90
46331;DHT22;32049;52.346;4.870;2022-12-07T06:26:35;5.90;99.90
46331;DHT22;32049;52.346;4.870;2022-12-07T06:29:22;5.80;99.90
46331;DHT22;32049;52.346;4.870;2022-12-07T06:32:14;5.80;99.90
46331;DHT22;32049;52.346;4.870;2022-12-07T06:35:15;5.80;99.90
46331;DHT22;32049;52.346;4.870;2022-12-07T07:33:24;5.50;99.90
46331;DHT22;32049;52.346;4.870;2022-12-07T07:36:29;5.50;99.90
46331;DHT22;32049;52.346;4.870;2022-12-07T07:39:18;5.50;99.90
46331;DHT22;32049;52.346;4.870;2022-12-07T07:42:09;5.60;99.90
46331;DHT22;32049;52.346;4.870;2022-12-07T07:45:00;5.50;99.90
46331;DHT22;32049;52.346;4.870;2022-12-07T07:47:59;5.70;99.90
46331;DHT22;32049;52.346;4.870;2022-12-07T07:51:06;5.80;99.90
46331;DHT22;32049;52.346;4.870;2022-12-07T07:54:09;5.70;99.90
46331;DHT22;32049;52.346;4.870;2022-12-07T07:57:03;5.70;99.90
46331;DHT22;32049;52.346;4.870;2022-12-07T07:59:52;5.80;99.90
46331;DHT22;32049;52.346;4.870;2022-12-07T08:03:13;5.70;99.90
46331;DHT22;32049;52.346;4.870;2022-12-07T08:06:40;5.80;99.90
46331;DHT22;32049;52.346;4.870;2022-12-07T08:09:41;5.90;99.90
46331;DHT22;32049;52.346;4.870;2022-12-07T08:12:38;5.90;99.90
46331;DHT22;32049;52.346;4.870;2022-12-07T08:15:50;6.00;99.90
46331;DHT22;32049;52.346;4.870;2022-12-07T08:19:04;6.10;99.90
46331;DHT22;32049;52.346;4.870;2022-12-07T08:22:41;6.00;99.90
46331;DHT22;32049;52.346;4.870;2022-12-07T08:25:38;6.30;99.90
46331;DHT22;32049;52.346;4.870;2022-12-07T08:29:03;6.10;99.90
46331;DHT22;32049;52.346;4.870;2022-12-07T08:31:53;6.20;99.90
46331;DHT22;32049;52.346;4.870;2022-12-07T08:34:46;6.30;99.90
46331;DHT22;32049;52.346;4.870;2022-12-07T08:37:37;6.20;99.90
46331;DHT22;32049;52.346;4.870;2022-12-07T08:40:30;6.30;99.90
46331;DHT22;32049;52.346;4.870;2022-12-07T08:43:22;6.20;99.90
46331;DHT22;32049;52.346;4.870;2022-12-07T08:46:21;6.20;99.90
46331;DHT22;32049;52.346;4.870;2022-12-07T08:49:19;6.10;99.90
46331;DHT22;32049;52.346;4.870;2022-12-07T08:52:07;6.00;99.90
46331;DHT22;32049;52.346;4.870;2022-12-07T08:54:55;6.10;99.90
46331;DHT22;32049;52.346;4.870;2022-12-07T08:58:14;6.20;99.90
46331;DHT22;32049;52.346;4.870;2022-12-07T09:01:07;6.00;99.90
46331;DHT22;32049;52.346;4.870;2022-12-07T09:04:13;6.00;99.90
46331;DHT22;32049;52.346;4.870;2022-12-07T09:10:44;6.10;99.90
46331;DHT22;32049;52.346;4.870;2022-12-07T09:13:32;6.20;99.90
46331;DHT22;32049;52.346;4.870;2022-12-07T09:16:22;6.10;99.90
46331;DHT22;32049;52.346;4.870;2022-12-07T09:19:10;6.30;99.90
46331;DHT22;32049;52.346;4.870;2022-12-07T09:22:04;6.30;99.90
46331;DHT22;32049;52.346;4.870;2022-12-07T09:24:56;6.50;99.90
46331;DHT22;32049;52.346;4.870;2022-12-07T09:27:59;6.40;99.90
46331;DHT22;32049;52.346;4.870;2022-12-07T09:30:52;6.50;99.90
46331;DHT22;32049;52.346;4.870;2022-12-07T09:34:11;6.50;99.90
46331;DHT22;32049;52.346;4.870;2022-12-07T09:37:24;6.40;99.90
46331;DHT22;32049;52.346;4.870;2022-12-07T09:40:23;6.60;99.90
46331;DHT22;32049;52.346;4.870;2022-12-07T09:43:27;6.70;99.90
46331;DHT22;32049;52.346;4.870;2022-12-07T09:46:45;6.70;99.90
46331;DHT22;32049;52.346;4.870;2022-12-07T09:49:36;6.90;99.90
46331;DHT22;32049;52.346;4.870;2022-12-07T09:52:27;6.90;99.90
46331;DHT22;32049;52.346;4.870;2022-12-07T09:55:34;7.00;99.90
46331;DHT22;32049;52.346;4.870;2022-12-07T09:58:37;7.00;99.90
46331;DHT22;32049;52.346;4.870;2022-12-07T10:01:33;7.20;99.90
46331;DHT22;32049;52.346;4.870;2022-12-07T10:04:23;7.50;99.90
46331;DHT22;32049;52.346;4.870;2022-12-07T10:07:14;7.40;99.90
46331;DHT22;32049;52.346;4.870;2022-12-07T10:10:22;6.80;99.90
46331;DHT22;32049;52.346;4.870;2022-12-07T10:14:12;6.40;99.90
46331;DHT22;32049;52.346;4.870;2022-12-07T10:17:01;6.40;99.90
46331;DHT22;32049;52.346;4.870;2022-12-07T10:19:51;6.40;99.90
46331;DHT22;32049;52.346;4.870;2022-12-07T10:22:56;6.50;99.90
46331;DHT22;32049;52.346;4.870;2022-12-07T10:25:46;6.60;99.90
46331;DHT22;32049;52.346;4.870;2022-12-07T10:28:37;6.70;99.90
46331;DHT22;32049;52.346;4.870;2022-12-07T10:32:04;6.70;99.90
46331;DHT22;32049;52.346;4.870;2022-12-07T10:38:07;10.20;99.90
46331;DHT22;32049;52.346;4.870;2022-12-07T10:41:06;14.30;99.90
46331;DHT22;32049;52.346;4.870;2022-12-07T10:44:08;14.40;99.90
46331;DHT22;32049;52.346;4.870;2022-12-07T10:56:39;17.20;98.50
46331;DHT22;32049;52.346;4.870;2022-12-07T11:03:53;16.80;96.70
46331;DHT22;32049;52.346;4.870;2022-12-07T11:08:18;16.50;97.90
46331;DHT22;32049;52.346;4.870;2022-12-07T11:17:14;17.10;96.30
46331;DHT22;32049;52.346;4.870;2022-12-07T11:23:30;18.30;95.90
46331;DHT22;32049;52.346;4.870;2022-12-07T11:26:41;17.80;95.70
46331;DHT22;32049;52.346;4.870;2022-12-07T11:32:41;10.30;99.90
46331;DHT22;32049;52.346;4.870;2022-12-07T11:35:46;9.50;99.90
46331;DHT22;32049;52.346;4.870;2022-12-07T11:38:45;9.30;99.90
46331;DHT22;32049;52.346;4.870;2022-12-07T11:41:41;9.10;99.90
46331;DHT22;32049;52.346;4.870;2022-12-07T11:44:39;9.30;99.90
46331;DHT22;32049;52.346;4.870;2022-12-07T11:47:56;10.10;99.90
46331;DHT22;32049;52.346;4.870;2022-12-07T11:50:47;9.80;99.90
46331;DHT22;32049;52.346;4.870;2022-12-07T11:53:53;9.40;99.90
46331;DHT22;32049;52.346;4.870;2022-12-07T11:56:43;8.80;99.90
46331;DHT22;32049;52.346;4.870;2022-12-07T11:59:43;9.90;99.90
46331;DHT22;32049;52.346;4.870;2022-12-07T12:02:48;14.10;99.90
46331;DHT22;32049;52.346;4.870;2022-12-07T12:05:37;17.10;98.10
46331;DHT22;32049;52.346;4.870;2022-12-07T12:08:31;18.50;95.40
46331;DHT22;32049;52.346;4.870;2022-12-07T12:18:35;19.70;91.50
46331;DHT22;32049;52.346;4.870;2022-12-07T12:22:02;19.10;90.50
46331;DHT22;32049;52.346;4.870;2022-12-07T12:24:55;20.00;89.20
46331;DHT22;32049;52.346;4.870;2022-12-07T12:31:41;13.50;93.80
46331;DHT22;32049;52.346;4.870;2022-12-07T12:37:50;10.10;99.90
46331;DHT22;32049;52.346;4.870;2022-12-07T12:40:47;9.50;99.90
46331;DHT22;32049;52.346;4.870;2022-12-07T12:43:49;9.00;99.90
46331;DHT22;32049;52.346;4.870;2022-12-07T12:47:00;8.70;99.90
46331;DHT22;32049;52.346;4.870;2022-12-07T12:50:11;8.10;99.90
46331;DHT22;32049;52.346;4.870;2022-12-07T12:53:25;7.80;99.90
46331;DHT22;32049;52.346;4.870;2022-12-07T12:56:26;7.90;99.90
46331;DHT22;32049;52.346;4.870;2022-12-07T13:02:15;7.90;99.90
46331;DHT22;32049;52.346;4.870;2022-12-07T13:05:18;7.90;99.90
46331;DHT22;32049;52.346;4.870;2022-12-07T13:37:55;8.30;99.90
46331;DHT22;32049;52.346;4.870;2022-12-07T13:40:43;8.20;99.90
46331;DHT22;32049;52.346;4.870;2022-12-07T13:43:51;8.10;99.90
46331;DHT22;32049;52.346;4.870;2022-12-07T13:57:00;8.20;99.90
46331;DHT22;32049;52.346;4.870;2022-12-07T14:06:24;8.20;99.90
46331;DHT22;32049;52.346;4.870;2022-12-07T14:09:21;8.30;99.90
46331;DHT22;32049;52.346;4.870;2022-12-07T14:12:12;8.10;99.90
46331;DHT22;32049;52.346;4.870;2022-12-07T14:15:19;8.10;99.90
46331;DHT22;32049;52.346;4.870;2022-12-07T14:18:43;8.10;99.90
46331;DHT22;32049;52.346;4.870;2022-12-07T14:21:32;7.90;99.90
46331;DHT22;32049;52.346;4.870;2022-12-07T14:24:21;8.00;99.90
46331;DHT22;32049;52.346;4.870;2022-12-07T14:27:21;7.90;99.90
46331;DHT22;32049;52.346;4.870;2022-12-07T14:30:14;7.80;99.90
46331;DHT22;32049;52.346;4.870;2022-12-07T14:33:03;7.70;99.90
46331;DHT22;32049;52.346;4.870;2022-12-07T14:35:50;7.60;99.90
46331;DHT22;32049;52.346;4.870;2022-12-07T14:38:42;7.50;99.90
46331;DHT22;32049;52.346;4.870;2022-12-07T14:41:30;7.60;99.90
46331;DHT22;32049;52.346;4.870;2022-12-07T14:44:36;7.70;99.90
46331;DHT22;32049;52.346;4.870;2022-12-07T14:47:24;7.80;99.90
46331;DHT22;32049;52.346;4.870;2022-12-07T14:50:33;7.70;99.90
46331;DHT22;32049;52.346;4.870;2022-12-07T14:53:25;7.60;99.90
46331;DHT22;32049;52.346;4.870;2022-12-07T14:56:15;7.60;99.90
46331;DHT22;32049;52.346;4.870;2022-12-07T14:59:02;7.60;99.90
46331;DHT22;32049;52.346;4.870;2022-12-07T15:01:50;7.70;99.90
46331;DHT22;32049;52.346;4.870;2022-12-07T15:04:37;7.60;99.90
46331;DHT22;32049;52.346;4.870;2022-12-07T15:42:36;7.20;99.90
46331;DHT22;32049;52.346;4.870;2022-12-07T15:45:23;7.20;99.90
46331;DHT22;32049;52.346;4.870;2022-12-07T15:48:11;7.20;99.90
46331;DHT22;32049;52.346;4.870;2022-12-07T15:51:16;7.20;99.90
46331;DHT22;32049;52.346;4.870;2022-12-07T16:10:25;7.30;99.90
46331;DHT22;32049;52.346;4.870;2022-12-07T16:13:13;7.30;99.90
46331;DHT22;32049;52.346;4.870;2022-12-07T16:16:02;7.30;99.90
46331;DHT22;32049;52.346;4.870;2022-12-07T16:18:50;7.20;99.90
46331;DHT22;32049;52.346;4.870;2022-12-07T16:31:39;7.20;99.90
46331;DHT22;32049;52.346;4.870;2022-12-07T16:37:28;7.20;99.90
46331;DHT22;32049;52.346;4.870;2022-12-07T16:40:15;7.20;99.90
46331;DHT22;32049;52.346;4.870;2022-12-07T16:43:03;7.20;99.90
46331;DHT22;32049;52.346;4.870;2022-12-07T16:45:51;7.10;99.90
46331;DHT22;32049;52.346;4.870;2022-12-07T16:54:44;7.10;99.90
46331;DHT22;32049;52.346;4.870;2022-12-07T16:57:32;7.00;99.90
46331;DHT22;32049;52.346;4.870;2022-12-07T17:09:28;7.10;99.90
46331;DHT22;32049;52.346;4.870;2022-12-07T17:12:17;7.10;99.90
46331;DHT22;32049;52.346;4.870;2022-12-07T17:15:05;7.10;99.90
46331;DHT22;32049;52.346;4.870;2022-12-07T17:46:07;7.10;99.90
46331;DHT22;32049;52.346;4.870;2022-12-07T17:48:56;7.10;99.90
46331;DHT22;32049;52.346;4.870;2022-12-07T17:51:44;7.10;99.90
46331;DHT22;32049;52.346;4.870;2022-12-07T17:54:51;7.10;99.90
46331;DHT22;32049;52.346;4.870;2022-12-07T17:57:38;7.10;99.90
46331;DHT22;32049;52.346;4.870;2022-12-07T18:00:26;6.90;99.90
46331;DHT22;32049;52.346;4.870;2022-12-07T18:03:14;6.90;99.90
46331;DHT22;32049;52.346;4.870;2022-12-07T18:06:01;6.90;99.90
46331;DHT22;32049;52.346;4.870;2022-12-07T18:14:40;6.70;99.90
46331;DHT22;32049;52.346;4.870;2022-12-07T18:17:28;6.60;99.90
46331;DHT22;32049;52.346;4.870;2022-12-07T18:20:15;6.70;99.90
46331;DHT22;32049;52.346;4.870;2022-12-07T18:32:23;6.80;99.90
46331;DHT22;32049;52.346;4.870;2022-12-07T18:35:23;6.90;99.90
46331;DHT22;32049;52.346;4.870;2022-12-07T18:38:31;6.90;99.90
46331;DHT22;32049;52.346;4.870;2022-12-07T18:41:41;6.90;99.90
46331;DHT22;32049;52.346;4.870;2022-12-07T18:52:17;6.80;99.90
46331;DHT22;32049;52.346;4.870;2022-12-07T18:58:07;6.80;99.90
46331;DHT22;32049;52.346;4.870;2022-12-07T19:00:55;6.70;99.90
46331;DHT22;32049;52.346;4.870;2022-12-07T19:06:42;6.60;99.90
46331;DHT22;32049;52.346;4.870;2022-12-07T19:12:33;6.30;99.90
46331;DHT22;32049;52.346;4.870;2022-12-07T19:15:21;6.50;99.90
46331;DHT22;32049;52.346;4.870;2022-12-07T19:18:08;6.50;99.90
46331;DHT22;32049;52.346;4.870;2022-12-07T19:20:55;6.50;99.90
46331;DHT22;32049;52.346;4.870;2022-12-07T19:23:43;6.40;99.90
46331;DHT22;32049;52.346;4.870;2022-12-07T19:26:31;6.40;99.90
46331;DHT22;32049;52.346;4.870;2022-12-07T19:29:24;6.40;99.90
46331;DHT22;32049;52.346;4.870;2022-12-07T19:32:15;6.30;99.90
46331;DHT22;32049;52.346;4.870;2022-12-07T19:35:03;6.40;99.90
46331;DHT22;32049;52.346;4.870;2022-12-07T19:37:51;6.50;99.90
46331;DHT22;32049;52.346;4.870;2022-12-07T19:40:39;6.50;99.90
46331;DHT22;32049;52.346;4.870;2022-12-07T19:43:26;6.50;99.90
46331;DHT22;32049;52.346;4.870;2022-12-07T19:46:13;6.50;99.90
46331;DHT22;32049;52.346;4.870;2022-12-07T19:49:00;6.60;99.90
46331;DHT22;32049;52.346;4.870;2022-12-07T19:51:49;6.50;99.90
46331;DHT22;32049;52.346;4.870;2022-12-07T19:54:37;6.40;99.90
46331;DHT22;32049;52.346;4.870;2022-12-07T20:00:34;6.50;99.90
46331;DHT22;32049;52.346;4.870;2022-12-07T20:03:22;6.40;99.90
46331;DHT22;32049;52.346;4.870;2022-12-07T20:06:19;6.40;99.90
46331;DHT22;32049;52.346;4.870;2022-12-07T20:09:07;6.40;99.90
46331;DHT22;32049;52.346;4.870;2022-12-07T20:11:55;6.40;99.90
46331;DHT22;32049;52.346;4.870;2022-12-07T20:15:01;6.40;99.90
46331;DHT22;32049;52.346;4.870;2022-12-07T20:17:53;6.40;99.90
46331;DHT22;32049;52.346;4.870;2022-12-07T20:20:40;6.30;99.90
46331;DHT22;32049;52.346;4.870;2022-12-07T20:23:29;6.40;99.90
46331;DHT22;32049;52.346;4.870;2022-12-07T20:26:17;6.40;99.90
46331;DHT22;32049;52.346;4.870;2022-12-07T20:29:08;6.30;99.90
46331;DHT22;32049;52.346;4.870;2022-12-07T20:32:03;6.40;99.90
46331;DHT22;32049;52.346;4.870;2022-12-07T20:37:40;6.20;99.90
46331;DHT22;32049;52.346;4.870;2022-12-07T20:40:28;6.30;99.90
46331;DHT22;32049;52.346;4.870;2022-12-07T20:43:15;6.30;99.90
46331;DHT22;32049;52.346;4.870;2022-12-07T20:46:03;6.20;99.90
46331;DHT22;32049;52.346;4.870;2022-12-07T20:48:50;6.30;99.90
46331;DHT22;32049;52.346;4.870;2022-12-07T20:51:38;6.40;99.90
46331;DHT22;32049;52.346;4.870;2022-12-07T20:54:25;6.40;99.90
46331;DHT22;32049;52.346;4.870;2022-12-07T21:00:16;6.30;99.90
46331;DHT22;32049;52.346;4.870;2022-12-07T21:03:04;6.40;99.90
46331;DHT22;32049;52.346;4.870;2022-12-07T21:05:52;6.30;99.90
46331;DHT22;32049;52.346;4.870;2022-12-07T21:08:45;6.40;99.90
46331;DHT22;32049;52.346;4.870;2022-12-07T21:14:39;6.40;99.90
46331;DHT22;32049;52.346;4.870;2022-12-07T21:20:31;6.30;99.90
46331;DHT22;32049;52.346;4.870;2022-12-07T21:23:19;6.30;99.90
46331;DHT22;32049;52.346;4.870;2022-12-07T21:26:14;6.30;99.90
46331;DHT22;32049;52.346;4.870;2022-12-07T21:29:03;6.20;99.90
46331;DHT22;32049;52.346;4.870;2022-12-07T21:31:51;6.20;99.90
46331;DHT22;32049;52.346;4.870;2022-12-07T21:34:38;6.20;99.90
46331;DHT22;32049;52.346;4.870;2022-12-07T21:37:25;6.20;99.90
46331;DHT22;32049;52.346;4.870;2022-12-07T21:40:12;6.20;99.90
46331;DHT22;32049;52.346;4.870;2022-12-07T21:43:03;6.20;99.90
46331;DHT22;32049;52.346;4.870;2022-12-07T21:45:50;6.20;99.90
46331;DHT22;32049;52.346;4.870;2022-12-07T21:48:57;6.10;99.90
46331;DHT22;32049;52.346;4.870;2022-12-07T21:54:53;6.10;99.90
46331;DHT22;32049;52.346;4.870;2022-12-07T21:57:41;6.10;99.90
46331;DHT22;32049;52.346;4.870;2022-12-07T22:00:28;6.10;99.90
46331;DHT22;32049;52.346;4.870;2022-12-07T22:03:36;6.10;99.90
46331;DHT22;32049;52.346;4.870;2022-12-07T22:06:24;6.10;99.90
46331;DHT22;32049;52.346;4.870;2022-12-07T22:09:12;6.00;99.90
46331;DHT22;32049;52.346;4.870;2022-12-07T22:12:00;5.90;99.90
46331;DHT22;32049;52.346;4.870;2022-12-07T22:14:47;6.00;99.90
46331;DHT22;32049;52.346;4.870;2022-12-07T22:17:54;6.10;99.90
46331;DHT22;32049;52.346;4.870;2022-12-07T22:20:58;6.10;99.90
46331;DHT22;32049;52.346;4.870;2022-12-07T22:24:10;6.10;99.90
46331;DHT22;32049;52.346;4.870;2022-12-07T22:27:27;6.10;99.90
46331;DHT22;32049;52.346;4.870;2022-12-07T22:30:22;6.10;99.90
46331;DHT22;32049;52.346;4.870;2022-12-07T22:33:09;6.00;99.90
46331;DHT22;32049;52.346;4.870;2022-12-07T22:35:57;6.00;99.90
46331;DHT22;32049;52.346;4.870;2022-12-07T22:38:44;6.10;99.90
46331;DHT22;32049;52.346;4.870;2022-12-07T22:42:00;6.10;99.90
46331;DHT22;32049;52.346;4.870;2022-12-07T22:44:58;6.00;99.90
46331;DHT22;32049;52.346;4.870;2022-12-07T22:47:45;6.00;99.90
46331;DHT22;32049;52.346;4.870;2022-12-07T22:50:40;5.90;99.90
46331;DHT22;32049;52.346;4.870;2022-12-07T22:53:28;5.90;99.90
46331;DHT22;32049;52.346;4.870;2022-12-07T22:56:15;5.80;99.90
46331;DHT22;32049;52.346;4.870;2022-12-07T23:03:01;6.00;99.90
46331;DHT22;32049;52.346;4.870;2022-12-07T23:05:49;5.90;99.90
46331;DHT22;32049;52.346;4.870;2022-12-07T23:08:37;5.90;99.90
46331;DHT22;32049;52.346;4.870;2022-12-07T23:11:25;5.90;99.90
46331;DHT22;32049;52.346;4.870;2022-12-07T23:14:33;6.00;99.90
46331;DHT22;32049;52.346;4.870;2022-12-07T23:17:20;5.90;99.90
46331;DHT22;32049;52.346;4.870;2022-12-07T23:20:15;6.10;99.90
46331;DHT22;32049;52.346;4.870;2022-12-07T23:35:17;5.90;99.90
46331;DHT22;32049;52.346;4.870;2022-12-07T23:38:04;6.00;99.90
46331;DHT22;32049;52.346;4.870;2022-12-07T23:40:52;6.00;99.90
46331;DHT22;32049;52.346;4.870;2022-12-07T23:43:49;5.90;99.90
46331;DHT22;32049;52.346;4.870;2022-12-07T23:46:36;5.80;99.90
46331;DHT22;32049;52.346;4.870;2022-12-07T23:52:33;5.90;99.90
46331;DHT22;32049;52.346;4.870;2022-12-07T23:59:58;5.80;99.90
